NCAR-RAP Real-Time Weather Data

Output produced by METARs form (06 May 2021  16:43 UTC)
found at http://weather.rap.ucar.edu/surface/
 
KSFO 061556Z 30013G19KT 9SM FEW009 BKN011 12/07 A3008 RMK AO2 SLP184 T01170072
KSFO 061551Z 30016KT 9SM FEW009 BKN011 12/07 A3008 RMK AO2
KSFO 061456Z 30009KT 10SM FEW009 12/07 A3006 RMK AO2 SLP178 T01220072 53009
KSFO 061356Z 29012KT 10SM FEW009 11/07 A3004 RMK AO2 SLP174 T01060072 $
KSFO 061256Z 30011KT 10SM FEW009 10/07 A3003 RMK AO2 SLP168 T01000072 $
KSFO 061156Z 29009KT 9SM FEW005 SCT200 11/07 A3003 RMK AO2 SLP168 T01060072 10117 20100 53002 $
KSFO 061056Z 30004KT 9SM FEW005 SCT011 11/08 A3002 RMK AO2 SLP166 T01060078 $
KSFO 060956Z 30006KT 9SM FEW004 11/08 A3002 RMK AO2 SLP165 T01060078 $
KSFO 060856Z 29006KT 9SM FEW004 SCT011 11/08 A3002 RMK AO2 SLP166 T01060078 50000 $
KSFO 060756Z 28004KT 9SM FEW004 SCT011 11/08 A3003 RMK AO2 SLP168 T01110078 402110106 $
KSFO 060656Z 29008KT 9SM FEW004 SCT011 11/08 A3003 RMK AO2 SLP167 T01110078
KSFO 060556Z 29007KT 9SM FEW004 BKN011 11/08 A3002 RMK AO2 SLP166 T01110083 10150 20111 51028
KSFO 060456Z 29011KT 10SM SCT004 12/08 A3001 RMK AO2 SLP161 T01170083
KSFO 060356Z 32008KT 10SM FEW004 12/08 A2997 RMK AO2 SLP149 T01220083